Map

Track Data

SID SEASON NUMBER BASIN SUBBASIN NAME ISO_TIME NATURE LAT LON WMO_WIND WMO_PRES WMO_AGENCY TRACK_TYPE DIST2LAND LANDFALL IFLAG USA_AGENCY USA_ATCF_ID USA_LAT USA_LON USA_RECORD USA_STATUS USA_WIND USA_PRES USA_SSHS USA_R34_NE USA_R34_SE USA_R34_SW USA_R34_NW USA_R50_NE USA_R50_SE USA_R50_SW USA_R50_NW USA_R64_NE USA_R64_SE USA_R64_SW USA_R64_NW USA_POCI USA_ROCI USA_RMW USA_EYE TOKYO_LAT TOKYO_LON TOKYO_GRADE TOKYO_WIND TOKYO_PRES TOKYO_R50_DIR TOKYO_R50_LONG TOKYO_R50_SHORT TOKYO_R30_DIR TOKYO_R30_LONG TOKYO_R30_SHORT TOKYO_LAND CMA_LAT CMA_LON CMA_CAT CMA_WIND CMA_PRES HKO_LAT HKO_LON HKO_CAT HKO_WIND HKO_PRES NEWDELHI_LAT NEWDELHI_LON NEWDELHI_GRADE NEWDELHI_WIND NEWDELHI_PRES NEWDELHI_CI NEWDELHI_DP NEWDELHI_POCI REUNION_LAT REUNION_LON REUNION_TYPE REUNION_WIND REUNION_PRES REUNION_TNUM REUNION_CI REUNION_RMW REUNION_R34_NE REUNION_R34_SE REUNION_R34_SW REUNION_R34_NW REUNION_R50_NE REUNION_R50_SE REUNION_R50_SW REUNION_R50_NW REUNION_R64_NE REUNION_R64_SE REUNION_R64_SW REUNION_R64_NW BOM_LAT BOM_LON BOM_TYPE BOM_WIND BOM_PRES BOM_TNUM BOM_CI BOM_RMW BOM_R34_NE BOM_R34_SE BOM_R34_SW BOM_R34_NW BOM_R50_NE BOM_R50_SE BOM_R50_SW BOM_R50_NW BOM_R64_NE BOM_R64_SE BOM_R64_SW BOM_R64_NW BOM_ROCI BOM_POCI BOM_EYE BOM_POS_METHOD BOM_PRES_METHOD NADI_LAT NADI_LON NADI_CAT NADI_WIND NADI_PRES WELLINGTON_LAT WELLINGTON_LON WELLINGTON_WIND WELLINGTON_PRES DS824_LAT DS824_LON DS824_STAGE DS824_WIND DS824_PRES TD9636_LAT TD9636_LON TD9636_STAGE TD9636_WIND TD9636_PRES TD9635_LAT TD9635_LON TD9635_WIND TD9635_PRES TD9635_ROCI NEUMANN_LAT NEUMANN_LON NEUMANN_CLASS NEUMANN_WIND NEUMANN_PRES MLC_LAT MLC_LON MLC_CLASS MLC_WIND MLC_PRES USA_GUST BOM_GUST BOM_GUST_PER REUNION_GUST REUNION_GUST_PER USA_SEAHGT USA_SEARAD_NE USA_SEARAD_SE USA_SEARAD_SW USA_SEARAD_NW STORM_SPEED STORM_DIR
1918032S10051 1918 10 SI MM NOT_NAMED 1918-01-31 18:00:00 NR -9.70000 50.7000 spur-merge 309 274 __________O___ -1 -9.70000 50.7000 7 7 230
1918032S10051 1918 10 SI MM NOT_NAMED 1918-01-31 21:00:00 NR -9.93771 50.4144 spur-merge 274 230 __________P___ -1 -9.93771 50.4144 7 7 230
1918032S10051 1918 10 SI MM NOT_NAMED 1918-02-01 00:00:00 NR -10.1702 50.1329 spur-merge 230 201 __________P___ -1 -10.1702 50.1329 7 7 230
1918032S10051 1918 10 SI MM NOT_NAMED 1918-02-01 03:00:00 NR -10.3926 49.8599 spur-merge 201 171 __________P___ -1 -10.3926 49.8599 7 7 231
1918032S10051 1918 10 SI MM NOT_NAMED 1918-02-01 06:00:00 NR -10.6000 49.6000 spur-merge 171 146 __________O___ -1 -10.6000 49.6000 7 6 231
1918032S10051 1918 10 SI MM NOT_NAMED 1918-02-01 09:00:00 NR -10.7893 49.3564 spur-merge 146 123 __________P___ -1 -10.7893 49.3564 7 6 232
1918032S10051 1918 10 SI MM NOT_NAMED 1918-02-01 12:00:00 NR -10.9649 49.1273 spur-merge 123 114 __________P___ -1 -10.9649 49.1273 7 6 232
1918032S10051 1918 10 SI MM NOT_NAMED 1918-02-01 15:00:00 NR -11.1331 48.9096 spur-merge 116 99 __________P___ -1 -11.1331 48.9096 7 5 231
1918032S10051 1918 10 SI MM NOT_NAMED 1918-02-01 18:00:00 NR -11.3000 48.7000 spur-merge 104 101 __________O___ -1 -11.3000 48.7000 7 5 230
1918032S10051 1918 10 SI MM NOT_NAMED 1918-02-01 21:00:00 NR -11.4627 48.5088 spur-merge 101 101 __________P___ -1 -11.4627 48.5088 7 5 229
1918032S10051 1918 10 SI MM NOT_NAMED 1918-02-02 00:00:00 NR -11.6273 48.3221 spur-merge 109 101 __________P___ -1 -11.6273 48.3221 7 5 228
1918032S10051 1918 10 SI MM NOT_NAMED 1918-02-02 03:00:00 NR -11.8033 48.1244 spur-merge 109 101 __________P___ -1 -11.8033 48.1244 7 6 228
1918032S10051 1918 10 SI MM NOT_NAMED 1918-02-02 06:00:00 NR -12.0000 47.9000 spur-merge 112 112 __________O___ -1 -12.0000 47.9000 7 6 229
1918032S10051 1918 10 SI MM NOT_NAMED 1918-02-02 09:00:00 NR -12.2244 47.6247 spur-merge 134 132 __________P___ -1 -12.2244 47.6247 7 7 230
1918032S10051 1918 10 SI MM NOT_NAMED 1918-02-02 12:00:00 NR -12.4701 47.3225 spur-merge 144 140 __________P___ -1 -12.4701 47.3225 7 8 230
1918032S10051 1918 10 SI MM NOT_NAMED 1918-02-02 15:00:00 NR -12.7307 47.0090 spur-merge 147 140 __________P___ -1 -12.7307 47.0090 7 8 229
1918032S10051 1918 10 SI MM NOT_NAMED 1918-02-02 18:00:00 NR -13.0000 46.7000 spur-merge 151 151 __________O___ -1 -13.0000 46.7000 7 8 227
1918032S10051 1918 10 SI MM NOT_NAMED 1918-02-02 21:00:00 NR -13.2800 46.4056 spur-merge 168 168 __________P___ -1 -13.2800 46.4056 7 8 225
1918032S10051 1918 10 SI MM NOT_NAMED 1918-02-03 00:00:00 NR -13.5650 46.1201 spur-merge 194 193 __________P___ -1 -13.5650 46.1201 7 8 224
1918032S10051 1918 10 SI MM NOT_NAMED 1918-02-03 03:00:00 NR -13.8425 45.8494 spur-merge 198 180 __________P___ -1 -13.8425 45.8494 7 7 223
1918032S10051 1918 10 SI MM NOT_NAMED 1918-02-03 06:00:00 NR -14.1000 45.6000 spur-merge 180 178 __________O___ -1 -14.1000 45.6000 7 7 223
1918032S10051 1918 10 SI MM NOT_NAMED 1918-02-03 09:00:00 NR -14.3173 45.3862 spur-merge 178 159 __________P___ -1 -14.3173 45.3862 7 6 224
1918032S10051 1918 10 SI MM NOT_NAMED 1918-02-03 12:00:00 NR -14.5147 45.1920 spur-merge 162 144 __________P___ -1 -14.5147 45.1920 7 5 224
1918032S10051 1918 10 SI MM NOT_NAMED 1918-02-03 15:00:00 NR -14.7048 45.0018 spur-merge 145 127 __________P___ -1 -14.7048 45.0018 7 5 225
1918032S10051 1918 10 SI MM NOT_NAMED 1918-02-03 18:00:00 NR -14.9000 44.8000 spur-merge 127 114 __________O___ -1 -14.9000 44.8000 7 6 226
1918032S10051 1918 10 SI MM NOT_NAMED 1918-02-03 21:00:00 NR -15.1260 44.5523 spur-merge 114 108 __________P___ -1 -15.1260 44.5523 7 7 227
1918032S10051 1918 10 SI MM NOT_NAMED 1918-02-04 00:00:00 NR -15.3576 44.2927 spur-merge 101 84 __________P___ -1 -15.3576 44.2927 7 7 227
1918032S10051 1918 10 SI MM NOT_NAMED 1918-02-04 03:00:00 NR -15.5854 44.0367 spur-merge 89 79 __________P___ -1 -15.5854 44.0367 7 7 227
1918032S10051 1918 10 SI MM NOT_NAMED 1918-02-04 06:00:00 NR -15.8000 43.8000 spur-merge 85 85 __________O___ -1 -15.8000 43.8000 7 6 227
1918032S10051 1918 10 SI MM NOT_NAMED 1918-02-04 09:00:00 NR -15.9811 43.5991 spur-merge 91 91 __________P___ -1 -15.9811 43.5991 7 5 226
1918032S10051 1918 10 SI MM NOT_NAMED 1918-02-04 12:00:00 NR -16.1498 43.4196 spur-merge 109 107 __________P___ -1 -16.1498 43.4196 7 5 224
1918032S10051 1918 10 SI MM NOT_NAMED 1918-02-04 15:00:00 NR -16.3187 43.2554 spur-merge 117 117 __________P___ -1 -16.3187 43.2554 7 5 221
1918032S10051 1918 10 SI MM NOT_NAMED 1918-02-04 18:00:00 NR -16.5000 43.1000 spur-merge 132 125 __________O___ -1 -16.5000 43.1000 7 5 219
1918032S10051 1918 10 SI MM NOT_NAMED 1918-02-04 21:00:00 NR -16.7025 42.9306 spur-merge 138 132 __________P___ -1 -16.7025 42.9306 7 5 217
1918032S10051 1918 10 SI MM NOT_NAMED 1918-02-05 00:00:00 NR -16.9200 42.7700 spur-merge 134 134 __________P___ -1 -16.9200 42.7700 7 5 213
1918032S10051 1918 10 SI MM NOT_NAMED 1918-02-05 03:00:00 NR -17.1525 42.6244 spur-merge 142 139 __________P___ -1 -17.1525 42.6244 7 5 208
1918032S10051 1918 10 SI MM NOT_NAMED 1918-02-05 06:00:00 NR -17.4000 42.5000 spur-merge 148 148 __________O___ -1 -17.4000 42.5000 7 6 203
1918032S10051 1918 10 SI MM NOT_NAMED 1918-02-05 09:00:00 NR -17.6646 42.3993 spur-merge 160 160 __________P___ -1 -17.6646 42.3993 7 6 198
1918032S10051 1918 10 SI MM NOT_NAMED 1918-02-05 12:00:00 NR -17.9424 42.3199 spur-merge 175 175 __________P___ -1 -17.9424 42.3199 7 6 194
1918032S10051 1918 10 SI MM NOT_NAMED 1918-02-05 15:00:00 NR -18.2240 42.2555 spur-merge 179 179 __________P___ -1 -18.2240 42.2555 7 6 192
1918032S10051 1918 10 SI MM NOT_NAMED 1918-02-05 18:00:00 NR -18.5000 42.2000 spur-merge 190 190 __________O___ -1 -18.5000 42.2000 7 5 193
1918032S10051 1918 10 SI MM NOT_NAMED 1918-02-05 21:00:00 NR -18.7531 42.1266 spur-merge 205 205 __________P___ -1 -18.7531 42.1266 7 5 195
1918032S10051 1918 10 SI MM NOT_NAMED 1918-02-06 00:00:00 NR -19.0000 42.0626 spur-merge 211 211 __________P___ -1 -19.0000 42.0626 7 5 192
1918032S10051 1918 10 SI MM NOT_NAMED 1918-02-06 03:00:00 NR -19.2469 42.0173 spur-merge 228 228 __________P___ -1 -19.2469 42.0173 7 5 187
1918032S10051 1918 10 SI MM NOT_NAMED 1918-02-06 06:00:00 NR -19.5000 42.0000 spur-merge 235 227 __________O___ -1 -19.5000 42.0000 7 5 182
1918032S10051 1918 10 SI MM NOT_NAMED 1918-02-06 09:00:00 NR -19.7759 42.0170 spur-merge 227 207 __________P___ -1 -19.7759 42.0170 7 6 174
1918032S10051 1918 10 SI MM NOT_NAMED 1918-02-06 12:00:00 NR -20.0575 42.0623 spur-merge 203 190 __________P___ -1 -20.0575 42.0623 7 6 169
1918032S10051 1918 10 SI MM NOT_NAMED 1918-02-06 15:00:00 NR -20.3353 42.1265 spur-merge 190 161 __________P___ -1 -20.3353 42.1265 7 6 166
1918032S10051 1918 10 SI MM NOT_NAMED 1918-02-06 18:00:00 NR -20.6000 42.2000 spur-merge 161 150 __________O___ -1 -20.6000 42.2000 7 5 168
1918032S10051 1918 10 SI MM NOT_NAMED 1918-02-06 21:00:00 NR -20.8148 42.2359 spur-merge 150 132 __________P___ -1 -20.8148 42.2359 7 4 169
1918032S10051 1918 10 SI MM NOT_NAMED 1918-02-07 00:00:00 NR -21.0197 42.2835 spur-merge 132 116 __________P___ -1 -21.0197 42.2835 7 4 165
1918032S10051 1918 10 SI MM NOT_NAMED 1918-02-07 03:00:00 NR -21.2397 42.3643 spur-merge 116 98 __________P___ -1 -21.2397 42.3643 7 5 157
1918032S10051 1918 10 SI MM NOT_NAMED 1918-02-07 06:00:00 NR -21.5000 42.5000 spur-merge 98 65 __________O___ -1 -21.5000 42.5000 7 7 152
1918032S10051 1918 10 SI MM NOT_NAMED 1918-02-07 09:00:00 NR -21.8524 42.7208 spur-merge 61 20 __________P___ -1 -21.8186 42.7058 7 9 148
1918032S10051 1918 10 SI MM NOT_NAMED 1918-02-07 12:00:00 NR -22.2429 42.9964 spur-merge 20 10 __________P___ -1 -22.1858 42.9702 7 10 146
1918032S10051 1918 10 SI MM NOT_NAMED 1918-02-07 15:00:00 NR -22.6368 43.2989 spur-merge 10 0 __________P___ -1 -22.5851 43.2745 7 9 144
1918032S10051 1918 10 SI MM NOT_NAMED 1918-02-07 18:00:00 NR -23.0000 43.6000 spur-merge 0 __________O___ -1 -23.0000 43.6000 7 9 143

About IBTrACS Database

This database is a web-friendly format of International Best Track Archive for Climate Stewardship (IBTrACS), a global best track data archive curated by NOAA dating back to 1842.

Updated: 2021-12-06